Keystone, South Dakota
Current Conditions -  °F | °C
As of 9:53 AM on Thursday 30 Oct 2014 (Local Time) from KCUT Reporting Station
Clear Clear  
Wind Chill: 50°   Ceiling: Unl
Heat Index: 50°   Visibility: 10mi
Dew Point: 29°   Wind: 5mph
Humidity: 44%   Direction: 350°N
Pressure: 30.31"   Gusts: NA
Location:  43.9°N, 103.42°W
Report Text: KCUT 301553Z AUTO 35004KT 10SM CLR 10/M02 A3031 RMK AO2 SLP240 T01001017
Loading
Personal Weather Stations






























Interactive Weather Map New forecast layout! Learn more

10-Day Weather Forecast

Advertisements
Track Severe Weather on mobile